Guemes Island, Washington
Current Conditions -  °F | °C
As of 7:56 AM on Monday 24 Nov 2014 (Local Time) from KNUW Reporting Station
Overcast Overcast  
Wind Chill: 44°   Ceiling: 12000
Heat Index: 49°   Visibility: 10mi
Dew Point: 40°   Wind: 14mph
Humidity: 71%   Direction: 110°ESE
Pressure: 30.29"   Gusts: NA
Location:  48.4652°N, 122.617°W
Report Text: KNUW 241556Z 11012KT 10SM FEW018 SCT070 BKN120 OVC160 09/04 A3029 RMK AO2 SLP260 T00940044 $
Loading
Personal Weather Stations






























Interactive Weather Map New forecast layout! Learn more

10-Day Weather Forecast

Advertisements
Track Severe Weather on mobile